Time;durP1;ratioP1;P1;durP2;ratioP2;P2;SDS_P1;SDS_P2;PMS_P1;PMS_P2;Temp;Humidity;BMP_temperature;BMP_pressure;BME280_temperature;BME280_humidity;BME280_pressure;Samples;Min_cycle;Max_cycle;Signal;HPM_P1;HPM_P2
2023/02/23 00:00:28;;;;;;;14.60;8.10;;;;;;;-5.14;100.00;100135.42;110306;1274;22347;-66
2023/02/23 00:02:59;;;;;;;16.50;7.70;;;;;;;-5.23;100.00;100135.42;106995;1274;24222;-65
2023/02/23 00:05:30;;;;;;;17.40;8.20;;;;;;;-5.30;100.00;100137.63;107209;1276;22652;-65
2023/02/23 00:07:58;;;;;;;16.10;8.00;;;;;;;-5.36;100.00;100137.63;107540;1275;22673;-65
2023/02/23 00:10:29;;;;;;;14.30;7.70;;;;;;;-5.39;100.00;100141.48;107591;1275;23840;-65
2023/02/23 00:12:58;;;;;;;14.50;8.10;;;;;;;-5.47;100.00;100139.84;107596;1274;23600;-65
2023/02/23 00:15:30;;;;;;;15.20;8.90;;;;;;;-5.57;100.00;100143.31;107582;1274;25386;-65
2023/02/23 00:17:59;;;;;;;16.50;8.90;;;;;;;-5.66;100.00;100146.51;107688;1270;22562;-65
2023/02/23 00:20:28;;;;;;;17.20;9.20;;;;;;;-5.72;100.00;100147.65;107633;1274;25347;-66
2023/02/23 00:22:57;;;;;;;14.60;7.80;;;;;;;-5.71;100.00;100149.32;110418;1274;23071;-66
2023/02/23 00:25:25;;;;;;;15.30;7.70;;;;;;;-5.71;100.00;100156.66;110436;1274;22438;-66
2023/02/23 00:27:54;;;;;;;14.40;7.70;;;;;;;-5.78;100.00;100153.67;110441;1274;22357;-66
2023/02/23 00:30:23;;;;;;;15.30;8.50;;;;;;;-5.84;100.00;100153.05;110418;1274;22292;-66
2023/02/23 00:32:52;;;;;;;15.30;7.90;;;;;;;-5.90;100.00;100151.52;110355;1275;22371;-66
2023/02/23 00:35:20;;;;;;;17.40;8.70;;;;;;;-5.95;100.00;100159.80;110420;1275;22348;-66
2023/02/23 00:37:51;;;;;;;15.10;8.20;;;;;;;-5.94;100.00;100162.89;110087;1270;22519;-65
2023/02/23 00:40:22;;;;;;;14.80;7.90;;;;;;;-5.94;100.00;100165.05;107667;1275;23780;-65
2023/02/23 00:42:51;;;;;;;15.00;8.60;;;;;;;-6.01;100.00;100166.81;107605;1276;24296;-66
2023/02/23 00:45:20;;;;;;;14.20;7.70;;;;;;;-6.08;100.00;100172.11;107541;1270;23003;-66
2023/02/23 00:47:48;;;;;;;16.80;8.80;;;;;;;-6.14;100.00;100169.05;107555;1270;23073;-65
2023/02/23 00:50:16;;;;;;;18.10;9.40;;;;;;;-6.21;100.00;100171.52;107304;1276;22555;-65
2023/02/23 00:52:46;;;;;;;19.00;8.90;;;;;;;-6.24;100.00;100170.60;107643;1269;26042;-65
2023/02/23 00:55:15;;;;;;;19.60;9.40;;;;;;;-6.23;100.00;100179.98;107238;1275;25533;-65
2023/02/23 00:57:43;;;;;;;19.80;9.20;;;;;;;-6.21;100.00;100175.95;107671;1275;25340;-65
2023/02/23 01:00:15;;;;;;;24.60;10.80;;;;;;;-6.19;100.00;100176.83;107501;1274;24768;-65
2023/02/23 01:02:46;;;;;;;21.70;10.80;;;;;;;-6.18;100.00;100180.39;107617;1275;23511;-65
2023/02/23 01:05:19;;;;;;;23.50;10.50;;;;;;;-6.17;100.00;100181.52;107605;1270;22529;-65
2023/02/23 01:07:49;;;;;;;22.30;10.70;;;;;;;-6.17;100.00;100180.06;107501;1276;22561;-65
2023/02/23 01:10:18;;;;;;;26.30;12.20;;;;;;;-6.14;100.00;100183.36;107437;1275;25374;-65
2023/02/23 01:12:51;;;;;;;25.20;12.70;;;;;;;-6.20;100.00;100184.50;107497;1272;22676;-65
2023/02/23 01:15:19;;;;;;;26.70;12.70;;;;;;;-6.27;100.00;100183.79;107540;1272;26541;-65
2023/02/23 01:17:48;;;;;;;28.50;13.40;;;;;;;-6.34;100.00;100189.42;107384;1272;26120;-65
2023/02/23 01:20:18;;;;;;;30.50;13.70;;;;;;;-6.40;100.00;100192.22;110279;1276;23184;-66
2023/02/23 01:22:48;;;;;;;28.00;13.60;;;;;;;-6.44;100.00;100193.10;110257;1276;23079;-65
2023/02/23 01:25:17;;;;;;;25.10;12.10;;;;;;;-6.49;100.00;100191.67;110199;1276;23033;-66
2023/02/23 01:27:45;;;;;;;28.00;13.30;;;;;;;-6.57;100.00;100196.11;110257;1273;23108;-65
2023/02/23 01:30:14;;;;;;;25.50;12.10;;;;;;;-6.61;100.00;100198.09;110260;1271;22326;-65
2023/02/23 01:32:44;;;;;;;24.10;11.70;;;;;;;-6.60;100.00;100197.14;110045;1277;22330;-65
2023/02/23 01:35:12;;;;;;;23.50;10.90;;;;;;;-6.58;100.00;100199.91;110213;1276;22780;-65
2023/02/23 01:37:41;;;;;;;23.10;11.10;;;;;;;-6.55;100.00;100199.97;110290;1276;22316;-66
2023/02/23 01:40:15;;;;;;;22.90;11.40;;;;;;;-6.53;100.00;100197.17;110202;1277;22208;-65
2023/02/23 01:42:47;;;;;;;22.70;11.60;;;;;;;-6.49;100.00;100195.73;110202;1277;22269;-65
2023/02/23 01:45:34;;;;;;;27.00;12.40;;;;;;;-6.47;100.00;100196.04;110049;1277;22683;-65
2023/02/23 01:48:20;;;;;;;29.70;13.00;;;;;;;-6.48;100.00;100198.27;107245;1274;23807;-65
2023/02/23 01:50:52;;;;;;;26.20;13.10;;;;;;;-6.59;100.00;100200.80;107792;1277;22518;-65
2023/02/23 01:53:20;;;;;;;38.30;15.80;;;;;;;-6.68;100.00;100201.27;107436;1276;22551;-65
2023/02/23 01:55:49;;;;;;;32.40;14.90;;;;;;;-6.74;100.00;100204.40;107292;1277;24372;-65
2023/02/23 01:58:26;;;;;;;32.60;15.40;;;;;;;-6.80;100.00;100208.87;107285;1270;22530;-65
2023/02/23 02:00:56;;;;;;;26.00;13.10;;;;;;;-6.90;100.00;100216.18;107339;1273;23912;-65
2023/02/23 02:03:40;;;;;;;34.30;15.40;;;;;;;-6.98;100.00;100217.52;107549;1270;23042;-65
2023/02/23 02:06:13;;;;;;;25.90;12.20;;;;;;;-7.00;100.00;100221.53;107426;1270;25245;-65
2023/02/23 02:08:45;;;;;;;25.70;12.40;;;;;;;-7.01;100.00;100231.36;107433;1271;26172;-65
2023/02/23 02:11:34;;;;;;;33.50;14.30;;;;;;;-7.05;100.00;100233.31;110190;1276;23071;-65
2023/02/23 02:14:11;;;;;;;34.20;16.40;;;;;;;-7.07;100.00;100241.61;110202;1277;22222;-65
2023/02/23 02:17:02;;;;;;;31.90;15.60;;;;;;;-7.10;100.00;100242.15;110082;1276;22442;-65
2023/02/23 02:19:53;;;;;;;32.90;14.70;;;;;;;-7.15;100.00;100241.33;110345;1270;22203;-66
2023/02/23 02:22:37;;;;;;;33.80;15.50;;;;;;;-7.17;100.00;100241.70;110287;1276;23049;-65
2023/02/23 02:25:21;;;;;;;26.60;12.90;;;;;;;-7.14;100.00;100246.20;110338;1269;22232;-65
2023/02/23 02:28:02;;;;;;;26.00;11.60;;;;;;;-7.13;100.00;100250.91;110271;1276;22225;-65
2023/02/23 02:30:43;;;;;;;28.10;13.10;;;;;;;-7.13;100.00;100249.30;109998;1270;387124;-65
2023/02/23 02:35:13;;;;;;;31.30;15.90;;;;;;;-7.17;100.00;100250.56;103523;1305;545446;-64
2023/02/23 02:38:00;;;;;;;34.30;17.60;;;;;;;-7.28;100.00;100256.20;105885;1288;25361;-65
2023/02/23 02:40:32;;;;;;;33.10;15.90;;;;;;;-7.36;100.00;100260.66;105797;1285;25454;-65
2023/02/23 02:43:15;;;;;;;37.20;17.50;;;;;;;-7.43;100.00;100266.81;106046;1283;27609;-65
2023/02/23 02:45:51;;;;;;;34.50;15.60;;;;;;;-7.49;100.00;100266.02;109415;1288;23017;-66
2023/02/23 02:48:29;;;;;;;34.40;16.40;;;;;;;-7.49;100.00;100269.14;109321;1286;188460;-66
2023/02/23 02:51:17;;;;;;;37.50;16.90;;;;;;;-7.56;100.00;100277.89;109539;1286;22213;-66
2023/02/23 02:54:05;;;;;;;37.60;17.10;;;;;;;-7.63;100.00;100276.30;109705;1279;22280;-66
2023/02/23 02:56:39;;;;;;;34.80;17.30;;;;;;;-7.67;100.00;100279.44;109571;1287;22431;-66
2023/02/23 04:19:48;;;;;;;18.00;9.70;;;;;;;-7.77;100.00;100335.23;110101;1278;22265;-65
2023/02/23 04:22:16;;;;;;;19.50;10.10;;;;;;;-7.79;100.00;100334.48;107126;1277;22524;-65
2023/02/23 04:24:45;;;;;;;17.80;9.20;;;;;;;-7.77;100.00;100335.23;106518;1278;25606;-64
2023/02/23 04:27:13;;;;;;;18.30;9.70;;;;;;;-7.77;100.00;100341.22;107036;1278;25369;-65
2023/02/23 04:29:42;;;;;;;19.30;10.10;;;;;;;-7.79;100.00;100343.98;106450;1276;22566;-65
2023/02/23 04:32:13;;;;;;;18.80;10.30;;;;;;;-7.80;100.00;100344.80;110255;1278;23091;-65
2023/02/23 04:34:42;;;;;;;22.10;10.90;;;;;;;-7.82;100.00;100348.51;110259;1277;22355;-65
2023/02/23 04:37:10;;;;;;;18.80;10.50;;;;;;;-7.88;100.00;100354.77;110255;1278;22426;-66
2023/02/23 04:39:39;;;;;;;23.80;11.60;;;;;;;-7.98;100.00;100352.81;110224;1277;22311;-66
2023/02/23 04:42:07;;;;;;;19.50;10.90;;;;;;;-8.07;100.00;100352.75;110268;1278;22340;-65
2023/02/23 04:44:36;;;;;;;22.10;11.60;;;;;;;-8.19;100.00;100356.15;110229;1278;22257;-66
2023/02/23 04:47:04;;;;;;;22.80;10.30;;;;;;;-8.24;100.00;100359.94;110185;1276;23240;-65
2023/02/23 04:49:35;;;;;;;18.20;10.10;;;;;;;-8.24;100.00;100356.05;110254;1278;22419;-66
2023/02/23 04:52:03;;;;;;;22.10;10.20;;;;;;;-8.25;100.00;100359.33;110220;1278;22783;-65
2023/02/23 04:54:36;;;;;;;16.80;9.10;;;;;;;-8.26;100.00;100363.61;110233;1278;22270;-65
2023/02/23 04:57:04;;;;;;;20.50;10.10;;;;;;;-8.26;100.00;100371.26;110040;1278;22275;-65
2023/02/23 04:59:33;;;;;;;18.80;9.10;;;;;;;-8.27;100.00;100375.34;110234;1278;22302;-65
2023/02/23 05:02:01;;;;;;;18.80;9.90;;;;;;;-8.23;100.00;100376.98;110229;1278;22308;-65
2023/02/23 05:04:31;;;;;;;23.00;10.80;;;;;;;-8.24;100.00;100379.27;110222;1278;22772;-65
2023/02/23 05:07:00;;;;;;;19.40;10.10;;;;;;;-8.22;100.00;100377.73;110215;1278;22223;-65
2023/02/23 05:09:29;;;;;;;23.40;13.40;;;;;;;-8.22;100.00;100379.41;110202;1278;22337;-65
2023/02/23 05:12:00;;;;;;;32.20;16.30;;;;;;;-8.22;100.00;100386.89;110234;1278;22872;-65
2023/02/23 05:14:28;;;;;;;35.80;15.80;;;;;;;-8.22;100.00;100391.27;110181;1276;22335;-65
2023/02/23 05:17:00;;;;;;;30.00;16.40;;;;;;;-8.16;100.00;100398.45;110175;1278;22304;-65
2023/02/23 05:19:34;;;;;;;37.20;18.20;;;;;;;-8.12;100.00;100397.63;110217;1278;22217;-65
2023/02/23 05:22:06;;;;;;;32.50;16.50;;;;;;;-8.09;100.00;100399.06;110221;1278;22855;-65
2023/02/23 05:24:35;;;;;;;31.20;14.20;;;;;;;-8.05;100.00;100399.98;110206;1278;22841;-65
2023/02/23 05:27:03;;;;;;;28.80;14.80;;;;;;;-8.03;100.00;100404.70;110207;1278;22296;-65
2023/02/23 05:29:33;;;;;;;30.20;15.30;;;;;;;-8.01;100.00;100409.83;110218;1278;22226;-65
2023/02/23 05:32:01;;;;;;;29.30;15.90;;;;;;;-7.97;100.00;100415.42;110222;1278;22388;-65
2023/02/23 05:34:30;;;;;;;26.50;14.30;;;;;;;-7.93;100.00;100419.55;110225;1278;23000;-65
2023/02/23 05:36:58;;;;;;;30.90;15.30;;;;;;;-7.89;100.00;100423.73;110057;1279;22372;-65
2023/02/23 05:39:28;;;;;;;29.70;16.00;;;;;;;-7.83;100.00;100423.54;110266;1278;22270;-65
2023/02/23 05:41:56;;;;;;;33.10;17.70;;;;;;;-7.82;100.00;100432.04;110239;1278;22483;-65
2023/02/23 05:44:24;;;;;;;35.80;18.10;;;;;;;-7.83;100.00;100431.64;110152;1278;22483;-65
2023/02/23 05:46:52;;;;;;;29.70;15.60;;;;;;;-7.83;100.00;100435.17;110189;1278;23101;-65
2023/02/23 05:49:21;;;;;;;29.90;16.20;;;;;;;-7.87;100.00;100442.40;110270;1278;23027;-65
2023/02/23 05:51:50;;;;;;;34.40;18.50;;;;;;;-7.89;100.00;100447.15;106849;1273;24275;-64
2023/02/23 05:54:19;;;;;;;34.70;18.40;;;;;;;-7.91;100.00;100450.11;107674;1273;22610;-64
2023/02/23 05:56:47;;;;;;;44.30;22.80;;;;;;;-7.87;100.00;100451.71;106651;1276;25340;-63
2023/02/23 05:59:16;;;;;;;33.40;17.80;;;;;;;-7.78;100.00;100457.21;106929;1276;26525;-63
2023/02/23 06:01:44;;;;;;;34.80;18.30;;;;;;;-7.72;100.00;100460.25;106483;1270;26653;-62
2023/02/23 06:04:13;;;;;;;35.10;18.00;;;;;;;-7.66;100.00;100460.94;107400;1278;25340;-63
2023/02/23 06:06:42;;;;;;;32.40;16.40;;;;;;;-7.52;100.00;100466.86;106434;1278;23208;-63
2023/02/23 06:09:10;;;;;;;31.50;15.40;;;;;;;-7.34;100.00;100467.02;106308;1278;25448;-63
2023/02/23 06:11:40;;;;;;;30.70;17.70;;;;;;;-7.15;100.00;100474.90;106475;1278;25428;-63
2023/02/23 06:14:08;;;;;;;28.40;15.80;;;;;;;-6.98;100.00;100479.03;106322;1278;25375;-64
2023/02/23 06:16:36;;;;;;;33.10;17.40;;;;;;;-6.83;100.00;100480.42;106520;1275;22520;-64
2023/02/23 06:19:06;;;;;;;30.70;15.90;;;;;;;-6.64;100.00;100480.74;106764;1278;22737;-64
2023/02/23 06:21:34;;;;;;;28.00;15.70;;;;;;;-6.45;100.00;100485.41;106907;1279;25442;-64
2023/02/23 06:24:04;;;;;;;28.60;15.50;;;;;;;-6.32;100.00;100485.61;107168;1270;25949;-65
2023/02/23 06:26:34;;;;;;;28.00;13.50;;;;;;;-6.17;100.00;100484.89;106800;1279;26169;-64
2023/02/23 06:29:02;;;;;;;24.60;13.70;;;;;;;-6.03;100.00;100482.23;106663;1279;25581;-65
2023/02/23 06:31:31;;;;;;;24.60;14.40;;;;;;;-5.78;100.00;100484.17;110005;1278;23061;-65
2023/02/23 06:34:02;;;;;;;26.90;15.60;;;;;;;-5.50;100.00;100486.41;110254;1278;22943;-65
2023/02/23 06:36:31;;;;;;;32.80;17.20;;;;;;;-5.35;100.00;100485.27;110071;1279;23099;-65
2023/02/23 06:39:05;;;;;;;22.50;13.80;;;;;;;-5.23;100.00;100488.64;110130;1279;22964;-65
2023/02/23 06:41:37;;;;;;;22.30;13.80;;;;;;;-5.20;100.00;100487.08;110122;1279;23073;-66
2023/02/23 06:44:06;;;;;;;23.90;13.90;;;;;;;-5.11;100.00;100490.83;110159;1278;22229;-65
2023/02/23 06:46:35;;;;;;;23.00;13.60;;;;;;;-4.92;100.00;100490.55;110194;1278;22427;-66
2023/02/23 06:49:03;;;;;;;23.20;15.00;;;;;;;-4.68;100.00;100486.47;110052;1278;23026;-65
2023/02/23 06:51:32;;;;;;;27.00;15.60;;;;;;;-4.42;100.00;100491.69;110214;1278;23178;-65
2023/02/23 06:54:00;;;;;;;20.70;13.30;;;;;;;-4.12;100.00;100486.28;110168;1278;22393;-66
2023/02/23 06:56:28;;;;;;;21.00;13.20;;;;;;;-3.93;100.00;100483.91;110023;1278;22201;-66
2023/02/23 06:58:56;;;;;;;21.10;13.00;;;;;;;-3.91;100.00;100483.16;107993;1278;22565;-66
2023/02/23 07:01:24;;;;;;;24.90;15.30;;;;;;;-4.03;100.00;100485.64;107237;1278;23901;-65
2023/02/23 07:03:52;;;;;;;26.10;14.90;;;;;;;-4.11;100.00;100485.87;107231;1278;22570;-65
2023/02/23 07:06:20;;;;;;;23.50;15.30;;;;;;;-4.00;100.00;100482.05;106719;1278;23526;-64
2023/02/23 07:08:49;;;;;;;28.40;15.10;;;;;;;-3.78;100.00;100487.67;107432;1276;23272;-65
2023/02/23 07:11:18;;;;;;;21.60;13.10;;;;;;;-3.61;100.00;100490.60;107403;1278;27422;-65
2023/02/23 07:13:48;;;;;;;23.30;13.40;;;;;;;-3.59;100.00;100489.81;110062;1277;23126;-66
2023/02/23 07:16:16;;;;;;;21.30;12.90;;;;;;;-3.64;100.00;100492.69;110205;1278;23046;-67
2023/02/23 07:18:45;;;;;;;26.10;14.50;;;;;;;-3.76;100.00;100490.25;110254;1278;22399;-66
2023/02/23 07:21:13;;;;;;;24.80;14.40;;;;;;;-3.77;100.00;100492.48;110253;1278;22237;-66
2023/02/23 07:23:42;;;;;;;22.10;13.50;;;;;;;-3.61;100.00;100492.17;110146;1278;23179;-65
2023/02/23 07:26:14;;;;;;;21.80;14.60;;;;;;;-3.53;100.00;100489.85;110056;1278;22334;-65
2023/02/23 07:28:43;;;;;;;26.70;14.60;;;;;;;-3.36;100.00;100488.81;110424;1276;22848;-65
2023/02/23 07:31:13;;;;;;;23.10;13.10;;;;;;;-3.27;100.00;100490.83;110339;1270;22758;-65
2023/02/23 07:33:42;;;;;;;20.10;12.90;;;;;;;-3.29;100.00;100490.92;110331;1276;22240;-66
2023/02/23 07:36:10;;;;;;;22.00;12.90;;;;;;;-3.34;100.00;100492.81;110372;1276;22292;-65
2023/02/23 07:38:38;;;;;;;22.80;13.20;;;;;;;-3.34;100.00;100493.28;110371;1276;22453;-66
2023/02/23 07:41:07;;;;;;;18.30;11.70;;;;;;;-3.34;100.00;100490.92;110376;1275;22391;-65
2023/02/23 07:43:35;;;;;;;20.40;12.80;;;;;;;-3.25;100.00;100488.67;110371;1273;22275;-65
2023/02/23 07:46:03;;;;;;;18.50;10.90;;;;;;;-3.20;100.00;100487.38;110359;1276;22392;-65
2023/02/23 07:48:38;;;;;;;18.70;11.10;;;;;;;-3.23;100.00;100488.80;110372;1276;23145;-66
2023/02/23 07:51:10;;;;;;;18.00;11.70;;;;;;;-3.16;100.00;100489.84;110305;1269;22459;-66
2023/02/23 07:53:39;;;;;;;16.50;9.70;;;;;;;-3.12;100.00;100493.60;110312;1276;22455;-65
2023/02/23 07:56:09;;;;;;;17.80;11.00;;;;;;;-3.11;100.00;100492.77;110371;1276;22544;-65
2023/02/23 07:58:42;;;;;;;15.90;10.30;;;;;;;-3.02;100.00;100490.42;110344;1270;22274;-66
2023/02/23 08:01:12;;;;;;;17.20;10.60;;;;;;;-2.93;100.00;100497.80;110294;1276;22501;-66
2023/02/23 08:03:40;;;;;;;20.10;10.20;;;;;;;-2.91;100.00;100497.61;110396;1276;22922;-66
2023/02/23 08:06:09;;;;;;;17.70;10.50;;;;;;;-2.88;100.00;100499.58;110354;1276;22438;-66
2023/02/23 08:08:38;;;;;;;15.10;10.30;;;;;;;-2.83;100.00;100497.21;110387;1271;22404;-65
2023/02/23 08:11:09;;;;;;;18.60;10.80;;;;;;;-2.71;100.00;100498.60;110344;1276;23338;-66
2023/02/23 08:13:38;;;;;;;15.20;10.00;;;;;;;-2.61;100.00;100496.35;110340;1270;22356;-65
2023/02/23 08:16:07;;;;;;;15.00;9.30;;;;;;;-2.49;100.00;100487.37;110393;1275;22202;-66
2023/02/23 08:18:39;;;;;;;20.50;10.20;;;;;;;-2.42;100.00;100485.40;110386;1271;23308;-66
2023/02/23 08:21:07;;;;;;;21.40;11.40;;;;;;;-2.38;100.00;100484.79;110361;1275;23702;-66
2023/02/23 08:23:35;;;;;;;16.90;10.70;;;;;;;-2.19;100.00;100486.20;110360;1271;23082;-66
2023/02/23 08:26:03;;;;;;;19.30;11.40;;;;;;;-2.00;100.00;100487.40;110382;1276;23019;-66
2023/02/23 08:28:32;;;;;;;15.70;10.90;;;;;;;-1.74;100.00;100486.59;110374;1270;22373;-67
2023/02/23 08:31:00;;;;;;;20.40;13.60;;;;;;;-1.53;100.00;100486.45;110303;1274;22421;-67
2023/02/23 08:33:30;;;;;;;15.20;10.10;;;;;;;-1.43;100.00;100485.52;110357;1273;22210;-67
2023/02/23 08:36:01;;;;;;;13.70;8.40;;;;;;;-1.40;100.00;100485.13;110370;1269;23115;-66
2023/02/23 08:38:31;;;;;;;15.50;9.40;;;;;;;-1.64;100.00;100484.84;110335;1270;22443;-66
2023/02/23 08:41:00;;;;;;;14.10;9.80;;;;;;;-1.77;100.00;100486.58;110359;1275;22217;-65
2023/02/23 08:43:31;;;;;;;13.00;8.20;;;;;;;-1.71;100.00;100490.77;109999;1274;25341;-65
2023/02/23 08:45:59;;;;;;;12.90;8.70;;;;;;;-1.82;100.00;100490.67;107786;1271;25416;-65
2023/02/23 08:48:28;;;;;;;15.30;9.10;;;;;;;-1.90;100.00;100490.38;110346;1276;22913;-67
2023/02/23 08:50:57;;;;;;;13.40;8.80;;;;;;;-1.89;100.00;100486.02;110404;1275;22289;-66
2023/02/23 08:53:28;;;;;;;17.10;10.40;;;;;;;-1.76;100.00;100491.44;110357;1275;23147;-65
2023/02/23 08:56:02;;;;;;;16.90;10.50;;;;;;;-1.49;100.00;100491.83;110275;1276;23218;-66
2023/02/23 08:58:30;;;;;;;13.50;8.60;;;;;;;-1.34;100.00;100494.04;107634;1276;22583;-65
2023/02/23 09:00:58;;;;;;;15.40;9.90;;;;;;;-1.31;100.00;100492.86;107649;1270;22527;-66
2023/02/23 09:03:29;;;;;;;12.50;8.30;;;;;;;-1.41;100.00;100488.08;107610;1276;23104;-66
2023/02/23 09:05:58;;;;;;;16.30;10.60;;;;;;;-1.43;100.00;100495.27;107581;1272;22609;-66
2023/02/23 09:08:28;;;;;;;13.20;9.70;;;;;;;-1.23;100.00;100495.58;107575;1270;23086;-66
2023/02/23 09:10:56;;;;;;;12.90;8.60;;;;;;;-0.94;100.00;100495.05;107500;1275;25404;-66
2023/02/23 09:13:24;;;;;;;13.10;8.40;;;;;;;-0.65;100.00;100499.71;107645;1276;22724;-66
2023/02/23 09:15:54;;;;;;;15.70;9.70;;;;;;;-0.47;100.00;100490.90;107754;1273;23234;-66
2023/02/23 09:18:22;;;;;;;14.20;8.90;;;;;;;-0.58;100.00;100499.98;107729;1269;22530;-66
2023/02/23 09:20:51;;;;;;;15.60;9.50;;;;;;;-0.63;100.00;100497.77;107722;1276;23235;-66
2023/02/23 09:23:20;;;;;;;14.10;8.90;;;;;;;-0.76;100.00;100500.52;106499;1270;23691;-64
2023/02/23 09:25:49;;;;;;;10.20;6.40;;;;;;;-0.91;100.00;100498.94;110331;1275;23035;-65
2023/02/23 09:28:18;;;;;;;13.90;7.70;;;;;;;-0.77;100.00;100498.60;110385;1273;22612;-65
2023/02/23 09:30:47;;;;;;;13.80;9.00;;;;;;;-0.65;100.00;100500.61;110376;1276;24018;-65
2023/02/23 09:33:16;;;;;;;13.20;8.50;;;;;;;-0.51;100.00;100492.45;110314;1270;22271;-65
2023/02/23 09:35:44;;;;;;;12.50;8.30;;;;;;;-0.41;100.00;100488.73;110348;1273;22461;-66
2023/02/23 09:38:13;;;;;;;12.20;7.70;;;;;;;-0.52;100.00;100490.91;110334;1273;22351;-66
2023/02/23 09:40:47;;;;;;;15.00;8.50;;;;;;;-0.71;100.00;100487.02;110324;1273;22328;-64
2023/02/23 09:43:41;;;;;;;12.50;7.10;;;;;;;-0.73;100.00;100486.47;110220;1275;22225;-65
2023/02/23 09:46:25;;;;;;;11.80;8.10;;;;;;;-0.57;100.00;100482.80;110137;1276;22217;-65
2023/02/23 09:48:54;;;;;;;13.20;8.20;;;;;;;-0.29;100.00;100486.32;110390;1275;23008;-65
2023/02/23 09:51:23;;;;;;;10.10;6.40;;;;;;;-0.21;100.00;100488.20;110153;1276;22371;-64
2023/02/23 09:53:53;;;;;;;9.50;6.20;;;;;;;-0.18;100.00;100486.27;110362;1271;22272;-64
2023/02/23 09:56:37;;;;;;;12.60;7.60;;;;;;;-0.15;100.00;100484.70;110227;1270;22375;-64
2023/02/23 09:59:09;;;;;;;10.80;6.40;;;;;;;-0.12;100.00;100485.02;110349;1276;22229;-64
2023/02/23 10:01:48;;;;;;;11.50;7.10;;;;;;;-0.19;100.00;100480.83;110138;1276;22417;-65
2023/02/23 10:04:20;;;;;;;10.90;6.50;;;;;;;-0.31;100.00;100476.95;110390;1276;22369;-64
2023/02/23 10:07:14;;;;;;;11.20;6.70;;;;;;;-0.30;100.00;100473.10;110265;1271;23216;-64
2023/02/23 10:10:10;;;;;;;10.60;6.50;;;;;;;-0.10;100.00;100471.70;110181;1276;22291;-64
2023/02/23 10:13:01;;;;;;;14.60;8.30;;;;;;;-0.04;100.00;100467.38;110411;1271;22203;-64
2023/02/23 10:15:58;;;;;;;15.30;8.20;;;;;;;-0.17;100.00;100473.29;110375;1273;22271;-66
2023/02/23 10:18:36;;;;;;;10.20;6.30;;;;;;;-0.13;100.00;100476.39;110041;1274;22425;-66
2023/02/23 10:21:22;;;;;;;11.00;5.70;;;;;;;-0.24;100.00;100470.45;110327;1275;22281;-66
2023/02/23 10:24:19;;;;;;;10.20;6.00;;;;;;;-0.40;100.00;100469.36;110365;1275;22296;-66
2023/02/23 10:26:55;;;;;;;8.00;5.20;;;;;;;-0.61;100.00;100466.69;110261;1274;22349;-66
2023/02/23 10:29:51;;;;;;;8.30;5.60;;;;;;;-0.79;98.64;100467.90;110374;1276;22368;-66
2023/02/23 10:32:27;;;;;;;12.80;6.40;;;;;;;-1.06;97.30;100461.81;110318;1269;22230;-66
2023/02/23 10:34:56;;;;;;;12.80;7.60;;;;;;;-1.15;98.40;100462.79;110218;1273;22248;-67
2023/02/23 10:37:25;;;;;;;11.80;7.60;;;;;;;-1.17;100.00;100465.27;110303;1276;22206;-67
2023/02/23 10:39:54;;;;;;;8.90;5.80;;;;;;;-1.20;100.00;100460.81;110406;1275;22278;-67
2023/02/23 10:42:27;;;;;;;12.40;6.50;;;;;;;-1.29;100.00;100466.52;110380;1276;22281;-67
2023/02/23 10:44:57;;;;;;;11.20;6.30;;;;;;;-1.28;100.00;100467.02;110403;1276;22253;-67
2023/02/23 10:47:30;;;;;;;12.60;7.80;;;;;;;-1.18;100.00;100463.14;110330;1276;22361;-67
2023/02/23 10:50:01;;;;;;;11.30;6.70;;;;;;;-1.16;100.00;100461.33;110303;1276;23227;-67
2023/02/23 10:52:44;;;;;;;12.50;7.60;;;;;;;-1.17;100.00;100463.17;110268;1276;22934;-67
2023/02/23 10:55:29;;;;;;;13.40;7.50;;;;;;;-1.24;100.00;100462.45;110223;1275;22600;-67
2023/02/23 10:58:19;;;;;;;10.50;6.20;;;;;;;-1.22;100.00;100462.13;110372;1275;22183;-67
2023/02/23 11:01:01;;;;;;;11.40;7.10;;;;;;;-1.24;100.00;100456.91;110400;1276;22246;-67
2023/02/23 11:03:32;;;;;;;11.20;5.60;;;;;;;-1.28;100.00;100459.73;110393;1275;22946;-67
2023/02/23 11:06:02;;;;;;;11.80;6.10;;;;;;;-1.28;100.00;100455.77;110431;1276;22226;-67
2023/02/23 11:08:33;;;;;;;10.80;6.40;;;;;;;-1.29;100.00;100452.54;110201;1275;22351;-67
2023/02/23 11:11:14;;;;;;;10.10;6.20;;;;;;;-1.29;100.00;100451.48;110406;1275;22210;-67
2023/02/23 11:13:48;;;;;;;8.70;5.10;;;;;;;-1.27;100.00;100447.48;110381;1276;23048;-67
2023/02/23 11:16:29;;;;;;;12.80;7.00;;;;;;;-1.35;100.00;100447.10;110410;1276;22212;-67
2023/02/23 11:19:01;;;;;;;12.80;7.00;;;;;;;-1.37;100.00;100450.23;110318;1276;22221;-67
2023/02/23 11:21:35;;;;;;;12.50;6.80;;;;;;;-1.37;100.00;100447.05;110291;1276;22241;-67
2023/02/23 11:24:17;;;;;;;10.90;6.50;;;;;;;-1.33;100.00;100453.30;110402;1276;22879;-67
2023/02/23 11:26:45;;;;;;;14.70;6.70;;;;;;;-1.23;100.00;100452.50;110448;1276;22355;-67
2023/02/23 11:29:40;;;;;;;13.00;7.50;;;;;;;-1.12;100.00;100452.21;110414;1276;22265;-67
2023/02/23 11:32:12;;;;;;;11.10;6.00;;;;;;;-1.02;100.00;100452.33;110302;1272;22371;-67
2023/02/23 11:34:42;;;;;;;14.60;6.70;;;;;;;-1.08;100.00;100451.57;110370;1254;22191;-67
2023/02/23 11:37:16;;;;;;;10.60;6.50;;;;;;;-1.07;100.00;100445.41;110302;1276;22327;-67
2023/02/23 11:39:58;;;;;;;12.20;6.70;;;;;;;-1.00;100.00;100446.93;110431;1276;23066;-67
2023/02/23 11:42:33;;;;;;;10.90;7.40;;;;;;;-0.98;100.00;100441.33;110412;1276;22287;-67
2023/02/23 11:45:15;;;;;;;11.30;6.50;;;;;;;-0.96;100.00;100442.20;110383;1275;22256;-67
2023/02/23 11:47:49;;;;;;;12.90;7.20;;;;;;;-0.84;100.00;100436.97;110301;1276;23380;-67
2023/02/23 11:50:31;;;;;;;11.70;7.20;;;;;;;-0.71;100.00;100437.24;110316;1275;22269;-67
2023/02/23 11:52:59;;;;;;;12.70;6.90;;;;;;;-0.61;100.00;100436.18;110287;1276;22929;-67
2023/02/23 11:55:28;;;;;;;11.60;6.60;;;;;;;-0.53;100.00;100435.73;110391;1275;22268;-67
2023/02/23 11:58:10;;;;;;;9.50;5.60;;;;;;;-0.39;100.00;100436.05;110457;1276;23152;-67
2023/02/23 12:00:40;;;;;;;12.20;7.60;;;;;;;-0.20;99.88;100433.22;110308;1276;22432;-68
2023/02/23 12:03:16;;;;;;;12.70;7.90;;;;;;;-0.07;98.96;100432.78;110419;1276;22999;-67
2023/02/23 12:05:49;;;;;;;13.20;8.60;;;;;;;0.07;98.94;100434.14;110149;1276;22950;-67
2023/02/23 12:08:47;;;;;;;11.60;7.40;;;;;;;0.17;98.73;100434.52;110261;1276;22269;-68
2023/02/23 12:11:24;;;;;;;13.70;7.70;;;;;;;0.26;96.96;100431.45;110064;1276;22371;-67
2023/02/23 12:14:11;;;;;;;11.70;7.20;;;;;;;0.37;97.22;100425.77;110390;1276;23604;-68
2023/02/23 12:16:51;;;;;;;11.00;6.90;;;;;;;0.54;98.47;100422.62;110406;1273;22536;-68
2023/02/23 12:19:22;;;;;;;13.90;7.20;;;;;;;0.60;98.27;100427.25;110338;1275;22255;-68
2023/02/23 12:22:04;;;;;;;10.30;6.60;;;;;;;0.50;94.31;100424.81;110268;1276;22326;-68
2023/02/23 12:24:49;;;;;;;10.90;6.50;;;;;;;0.33;90.03;100424.26;110407;1276;22399;-68
2023/02/23 12:27:41;;;;;;;14.30;7.50;;;;;;;0.14;86.79;100422.41;110280;1276;22944;-68
2023/02/23 12:30:26;;;;;;;12.10;7.20;;;;;;;-0.01;87.89;100422.97;110399;1270;22429;-68
2023/02/23 12:32:56;;;;;;;11.70;7.50;;;;;;;-0.12;89.31;100420.48;110315;1276;23247;-68
2023/02/23 12:35:28;;;;;;;12.50;7.50;;;;;;;-0.27;90.44;100415.35;110290;1276;22422;-68
2023/02/23 12:38:32;;;;;;;11.30;7.10;;;;;;;-0.38;93.11;100413.06;110303;1276;22309;-68
2023/02/23 12:41:13;;;;;;;13.70;7.70;;;;;;;-0.45;95.35;100409.09;110211;1275;22195;-67
2023/02/23 12:43:48;;;;;;;13.10;7.70;;;;;;;-0.44;98.59;100406.77;110423;1276;23103;-67
2023/02/23 12:46:29;;;;;;;12.40;7.50;;;;;;;-0.42;100.00;100397.75;110319;1276;22252;-68